createdAt,value
2023-01-30T00:04:17.322Z,13.02
2023-01-30T00:08:39.748Z,12.65
2023-01-30T00:13:01.845Z,12.52
2023-01-30T00:17:23.990Z,13.93
2023-01-30T00:21:46.066Z,11.95
2023-01-30T00:26:09.849Z,13.13
2023-01-30T00:30:33.172Z,13.10
2023-01-30T00:34:55.271Z,11.18
2023-01-30T00:39:17.426Z,13.77
2023-01-30T00:43:58.405Z,12.77
2023-01-30T00:48:20.409Z,10.27
2023-01-30T00:52:42.367Z,11.88
2023-01-30T00:57:04.650Z,12.30
2023-01-30T01:01:26.802Z,11.93
2023-01-30T01:05:48.860Z,11.55
2023-01-30T01:10:16.522Z,14.10
2023-01-30T01:14:38.640Z,12.10
2023-01-30T01:19:00.730Z,12.32
2023-01-30T01:23:22.847Z,13.55
2023-01-30T01:27:46.088Z,10.75
2023-01-30T01:32:08.023Z,12.52
2023-01-30T01:41:14.507Z,11.90
2023-01-30T01:45:36.710Z,10.55
2023-01-30T01:49:59.288Z,14.43
2023-01-30T01:54:34.705Z,12.98
2023-01-30T01:59:02.674Z,12.32
2023-01-30T02:03:29.018Z,13.18
2023-01-30T02:08:10.487Z,11.68
2023-01-30T02:12:32.674Z,10.18
2023-01-30T02:16:54.558Z,12.82
2023-01-30T02:22:18.801Z,12.80
2023-01-30T02:26:57.928Z,11.93
2023-01-30T02:32:16.635Z,11.27
2023-01-30T02:37:09.267Z,11.50
2023-01-30T02:42:16.487Z,11.52
2023-01-30T02:47:02.987Z,11.23
2023-01-30T02:51:35.438Z,12.13
2023-01-30T02:55:57.466Z,11.98
2023-01-30T03:00:30.546Z,11.05
2023-01-30T03:04:58.730Z,11.18
2023-01-30T03:09:55.545Z,12.38
2023-01-30T03:14:52.966Z,12.73
2023-01-30T03:19:14.947Z,12.05
2023-01-30T03:23:37.104Z,11.30
2023-01-30T03:27:59.946Z,11.38
2023-01-30T03:32:22.366Z,11.77
2023-01-30T03:36:46.988Z,6.88
2023-01-30T03:41:10.166Z,10.18
2023-01-30T03:45:34.228Z,12.02
2023-01-30T03:49:56.087Z,11.63
2023-01-30T03:54:18.184Z,12.75
2023-01-30T03:58:40.826Z,12.70
2023-01-30T04:03:12.186Z,14.73
2023-01-30T04:07:34.259Z,12.43
2023-01-30T04:11:57.828Z,14.52
2023-01-30T04:16:27.173Z,11.90
2023-01-30T04:21:07.848Z,9.73
2023-01-30T04:25:33.822Z,11.90
2023-01-30T04:29:56.288Z,11.85
2023-01-30T04:34:18.689Z,12.45
2023-01-30T04:38:40.971Z,11.70
2023-01-30T04:43:03.369Z,12.18
2023-01-30T04:47:31.251Z,9.48
2023-01-30T04:51:55.406Z,9.70
2023-01-30T04:56:17.299Z,10.55
2023-01-30T05:00:40.306Z,9.18
2023-01-30T05:05:02.571Z,10.98
2023-01-30T05:09:24.795Z,10.52
2023-01-30T05:13:46.851Z,10.40
2023-01-30T05:18:08.632Z,10.95
2023-01-30T05:22:30.828Z,11.02
2023-01-30T05:26:52.909Z,9.00
2023-01-30T05:31:15.170Z,10.20
2023-01-30T05:35:39.565Z,9.80
2023-01-30T05:40:01.607Z,9.85
2023-01-30T05:44:23.951Z,12.85
2023-01-30T05:48:45.946Z,8.80
2023-01-30T05:53:08.328Z,9.13
2023-01-30T05:57:30.350Z,6.90
2023-01-30T06:01:52.272Z,9.23
2023-01-30T06:06:15.146Z,8.13
2023-01-30T06:10:37.651Z,7.38
2023-01-30T06:14:59.827Z,6.80
2023-01-30T06:19:21.588Z,10.95
2023-01-30T06:23:44.200Z,10.23
2023-01-30T06:28:06.347Z,9.57
2023-01-30T06:32:28.523Z,9.38
2023-01-30T06:36:50.389Z,8.57
2023-01-30T06:41:12.614Z,8.48
2023-01-30T06:45:34.787Z,8.32
2023-01-30T06:49:57.109Z,8.90
2023-01-30T06:54:19.475Z,8.38
2023-01-30T06:58:41.047Z,5.75
2023-01-30T07:03:03.231Z,6.97
2023-01-30T07:07:25.108Z,6.72
2023-01-30T07:11:48.878Z,7.72
2023-01-30T07:16:10.748Z,6.60
2023-01-30T07:20:32.626Z,7.28
2023-01-30T07:24:54.851Z,7.47
2023-01-30T07:29:16.961Z,8.43
2023-01-30T07:33:38.907Z,6.85
2023-01-30T07:38:00.971Z,6.35
2023-01-30T07:42:22.988Z,4.82
2023-01-30T07:46:45.172Z,5.07
2023-01-30T07:51:07.331Z,5.75
2023-01-30T07:55:29.220Z,5.43
2023-01-30T07:59:51.394Z,5.40
2023-01-30T08:04:13.607Z,5.15
2023-01-30T08:08:36.051Z,5.22
2023-01-30T08:12:58.168Z,4.22
2023-01-30T08:17:20.519Z,4.85
2023-01-30T08:21:42.503Z,4.22
2023-01-30T08:26:06.462Z,6.03
2023-01-30T08:30:30.692Z,5.47
2023-01-30T08:34:52.998Z,5.85
2023-01-30T08:39:15.348Z,6.57
2023-01-30T08:43:37.582Z,6.35
2023-01-30T08:48:04.948Z,7.43
2023-01-30T08:52:26.822Z,5.65
2023-01-30T08:56:49.090Z,6.85
2023-01-30T09:01:11.202Z,6.00
2023-01-30T09:05:33.274Z,5.63
2023-01-30T09:09:55.773Z,4.65
2023-01-30T09:14:21.127Z,5.30
2023-01-30T09:18:44.832Z,4.53
2023-01-30T09:23:06.760Z,5.00
2023-01-30T09:27:28.832Z,4.20
2023-01-30T09:31:50.707Z,4.30
2023-01-30T09:36:12.711Z,3.75
2023-01-30T09:40:41.549Z,3.45
2023-01-30T09:45:28.298Z,3.63
2023-01-30T09:50:21.849Z,3.80
2023-01-30T09:54:46.086Z,3.63
2023-01-30T09:59:17.682Z,3.67
2023-01-30T10:04:08.820Z,3.30
2023-01-30T10:09:05.326Z,3.08
2023-01-30T10:13:35.505Z,4.20
2023-01-30T10:18:12.293Z,2.75
2023-01-30T10:23:14.076Z,2.97
2023-01-30T10:27:37.830Z,2.97
2023-01-30T10:32:15.146Z,4.10
2023-01-30T10:36:53.900Z,4.18
2023-01-30T10:41:37.851Z,4.38
2023-01-30T10:46:30.957Z,3.80
2023-01-30T10:51:11.995Z,4.28
2023-01-30T10:55:59.765Z,3.38
2023-01-30T11:00:30.781Z,3.72
2023-01-30T11:05:14.669Z,3.92
2023-01-30T11:09:54.866Z,3.47
2023-01-30T11:14:17.017Z,4.10
2023-01-30T11:19:18.847Z,3.92
2023-01-30T11:23:42.135Z,3.97
2023-01-30T11:28:06.551Z,4.50
2023-01-30T11:32:29.783Z,4.00
2023-01-30T11:36:52.229Z,4.28
2023-01-30T11:41:21.365Z,5.10
2023-01-30T11:45:49.379Z,4.93
2023-01-30T11:50:30.894Z,4.53
2023-01-30T11:55:08.876Z,4.18
2023-01-30T11:59:54.333Z,4.80
2023-01-30T12:04:16.346Z,5.47
2023-01-30T12:08:42.795Z,5.50
2023-01-30T12:13:21.066Z,7.68
2023-01-30T12:17:59.286Z,4.90
2023-01-30T12:22:32.513Z,4.80
2023-01-30T12:27:24.788Z,4.85
2023-01-30T12:31:51.571Z,4.88
2023-01-30T12:36:35.379Z,4.13
2023-01-30T12:41:54.794Z,3.58
2023-01-30T12:46:28.571Z,3.53
2023-01-30T12:51:23.875Z,3.40
2023-01-30T12:56:10.290Z,3.10
2023-01-30T13:01:02.966Z,3.00
2023-01-30T13:05:42.918Z,3.13
2023-01-30T13:10:20.420Z,3.30
2023-01-30T13:14:51.434Z,4.30
2023-01-30T13:19:52.728Z,2.95
2023-01-30T13:25:04.071Z,3.20
2023-01-30T13:29:38.615Z,3.05
2023-01-30T13:34:40.841Z,4.70
2023-01-30T13:39:27.900Z,3.42
2023-01-30T13:43:54.222Z,3.60
2023-01-30T13:48:43.234Z,3.15
2023-01-30T13:53:43.328Z,4.18
2023-01-30T13:58:41.770Z,3.60
2023-01-30T14:03:06.762Z,3.42
2023-01-30T14:07:42.106Z,3.47
2023-01-30T14:12:04.740Z,3.15
2023-01-30T14:16:51.707Z,3.40
2023-01-30T14:21:25.538Z,3.25
2023-01-30T14:25:58.547Z,3.13
2023-01-30T14:30:45.776Z,4.03
2023-01-30T14:35:07.504Z,2.55
2023-01-30T14:39:41.460Z,3.22
2023-01-30T14:44:03.423Z,2.92
2023-01-30T14:49:01.027Z,2.90
2023-01-30T14:53:24.384Z,2.75
2023-01-30T14:58:01.647Z,2.63
2023-01-30T15:02:28.352Z,2.90
2023-01-30T15:06:51.871Z,3.20
2023-01-30T15:11:23.476Z,2.72
2023-01-30T15:16:19.645Z,2.70
2023-01-30T15:21:40.732Z,2.85
2023-01-30T15:26:25.120Z,2.50
2023-01-30T15:31:13.435Z,3.58
2023-01-30T15:35:35.426Z,3.65
2023-01-30T15:40:18.603Z,2.55
2023-01-30T15:45:04.131Z,2.22
2023-01-30T15:49:53.927Z,2.58
2023-01-30T15:54:20.209Z,2.75
2023-01-30T15:58:44.428Z,2.80
2023-01-30T16:03:13.575Z,3.22
2023-01-30T16:07:35.399Z,2.80
2023-01-30T16:11:57.426Z,2.70
2023-01-30T16:16:20.569Z,3.00
2023-01-30T16:21:01.650Z,2.88
2023-01-30T16:25:29.999Z,3.03
2023-01-30T16:29:56.814Z,3.35
2023-01-30T16:34:35.129Z,2.97
2023-01-30T16:38:57.346Z,2.70
2023-01-30T16:43:23.831Z,2.50
2023-01-30T16:47:45.950Z,2.80
2023-01-30T16:52:19.434Z,2.08
2023-01-30T16:56:48.496Z,2.55
2023-01-30T17:01:10.535Z,2.92
2023-01-30T17:05:42.977Z,2.72
2023-01-30T17:10:05.606Z,2.47
2023-01-30T17:14:32.975Z,2.38
2023-01-30T17:18:58.431Z,2.35
2023-01-30T17:23:22.283Z,2.50
2023-01-30T17:27:44.659Z,2.53
2023-01-30T17:32:15.525Z,2.33
2023-01-30T17:36:38.805Z,2.88
2023-01-30T17:41:02.275Z,3.20
2023-01-30T17:45:24.138Z,2.58
2023-01-30T17:49:46.053Z,3.05
2023-01-30T17:54:08.177Z,2.70
2023-01-30T17:58:29.966Z,2.60
2023-01-30T18:02:53.315Z,3.13
2023-01-30T18:07:16.790Z,2.63
2023-01-30T18:11:38.607Z,2.63
2023-01-30T18:16:00.688Z,2.53
2023-01-30T18:20:23.187Z,2.70
2023-01-30T18:24:45.307Z,2.65
2023-01-30T18:29:09.873Z,2.13
2023-01-30T18:33:34.124Z,3.05
2023-01-30T18:38:00.785Z,2.38
2023-01-30T18:42:24.625Z,3.53
2023-01-30T18:46:46.908Z,2.58
2023-01-30T18:51:17.335Z,3.03
2023-01-30T18:55:39.615Z,3.15
2023-01-30T19:00:01.623Z,3.22
2023-01-30T19:04:23.497Z,2.53
2023-01-30T19:08:46.252Z,2.35
2023-01-30T19:13:30.362Z,2.97
2023-01-30T19:17:52.916Z,2.45
2023-01-30T19:22:17.182Z,2.67
2023-01-30T19:26:39.796Z,2.67
2023-01-30T19:31:09.750Z,2.67
2023-01-30T19:35:31.658Z,3.22
2023-01-30T19:39:53.694Z,2.80
2023-01-30T19:44:15.835Z,3.53
2023-01-30T19:48:43.370Z,4.32
2023-01-30T19:53:05.547Z,2.45
2023-01-30T19:57:27.499Z,3.35
2023-01-30T20:01:49.541Z,3.10
2023-01-30T20:06:18.686Z,2.95
2023-01-30T20:10:41.868Z,2.70
2023-01-30T20:15:05.796Z,3.10
2023-01-30T20:19:27.650Z,3.30
2023-01-30T20:23:50.396Z,3.00
2023-01-30T20:28:12.262Z,2.90
2023-01-30T20:32:36.735Z,2.30
2023-01-30T20:36:59.977Z,3.25
2023-01-30T20:41:25.085Z,2.78
2023-01-30T20:45:47.287Z,2.72
2023-01-30T20:50:12.016Z,3.28
2023-01-30T20:54:34.058Z,3.40
2023-01-30T20:58:56.821Z,2.63
2023-01-30T21:03:18.916Z,2.92
2023-01-30T21:07:40.972Z,2.25
2023-01-30T21:12:02.797Z,4.15
2023-01-30T21:16:28.431Z,2.75
2023-01-30T21:20:50.349Z,2.88
2023-01-30T21:25:12.732Z,3.42
2023-01-30T21:29:34.604Z,3.33
2023-01-30T21:33:58.648Z,3.30
2023-01-30T21:38:39.245Z,3.05
2023-01-30T21:43:16.669Z,3.13
2023-01-30T21:47:38.910Z,3.08
2023-01-30T21:52:01.097Z,2.40
2023-01-30T21:56:24.288Z,2.50
2023-01-30T22:00:46.750Z,2.60
2023-01-30T22:05:09.874Z,3.22
2023-01-30T22:09:31.971Z,2.90
2023-01-30T22:13:54.905Z,2.75
2023-01-30T22:18:17.659Z,3.53
2023-01-30T22:22:40.078Z,3.05
2023-01-30T22:27:01.982Z,3.00
2023-01-30T22:31:25.781Z,3.38
2023-01-30T22:35:51.283Z,3.60
2023-01-30T22:40:13.200Z,3.63
2023-01-30T22:44:35.916Z,3.45
2023-01-30T22:49:01.065Z,3.75
2023-01-30T22:53:22.926Z,3.55
2023-01-30T22:57:45.212Z,3.22
2023-01-30T23:02:10.427Z,4.30
2023-01-30T23:06:33.351Z,3.83
2023-01-30T23:10:55.608Z,3.70
2023-01-30T23:15:18.188Z,4.10
2023-01-30T23:19:40.389Z,3.53
2023-01-30T23:24:08.259Z,3.35
2023-01-30T23:28:30.506Z,3.10
2023-01-30T23:32:52.707Z,3.15
2023-01-30T23:37:15.309Z,3.40
2023-01-30T23:41:37.588Z,3.65
2023-01-30T23:46:12.399Z,3.85
2023-01-30T23:50:37.645Z,3.80
2023-01-30T23:54:59.753Z,3.60
2023-01-30T23:59:21.840Z,3.63
